Accueil
METAR-TAF:

METAR-TAF

Aéroports :

Santander, Espagne

Aéroport de Santander

latitude: 43-26N, longitude: 003-49W, altitude: 6 m

Observation

Le bulletin a été fait il y a 29 minutes, à 02:00 UTC
Vent 8 kt de sud-ouest
Température 9°C
Humidité 57%
Pression 1017 hPa
Visibilité: 8000 m
Nuages fragmentés à une hauteur de 6900 ft

METAR: LEXJ 010200Z AUTO 23008KT 8000 BKN069 09/01 Q1017

Heure: 04:29 (02:29 UTC)

Prévision

Le bulletin a été fait il y a 6 heures et 29 minutes, à 20:00 UTC
Prévision valable du 30 à 21 UTC au 01 à 21 UTC
Vent 9 kt de sud/sud-ouest
Visibilité 10 km ou plus
Nuages épars à une hauteur de 3000 ft
Probabilité 40% :
Temporairement
du 30 à 21 UTC au 30 à 24 UTC
Vent 15 kt de ouest avec des rafales jusqu'à 25 kt
Temporairement
du 01 à 10 UTC au 01 à 18 UTC
Vent 10 kt de ouest

TAF: LEXJ 302000Z 3021/0121 21009KT 9999 SCT030 TX17/0116Z TN07/0106Z PROB40 TEMPO 3021/3024 27015G25KT TEMPO 0110/0118 27010KT

Observations et prévisions météorologiques de plus de 4000 aéroports (messages METAR et TAF).

Les stations disponibles sont représentées par des disques jaunes et rouges sur la carte.

Passer la souris dessus pour voir le nom de la station.

Cliquer dessus pour voir les observations et prévisions météorologiques.

Pour changer de carte: cliquez sur les boutons verts avec une croix noire pour zoomer, sur le bouton vert avec un tiret pour effectuer un zoom arrière, ou sur les flèches vertes pour les cartes adjacentes.


METAR-TAF: